Time;durP1;ratioP1;P1;durP2;ratioP2;P2;SDS_P1;SDS_P2;PMS_P1;PMS_P2;Temp;Humidity;BMP_temperature;BMP_pressure;BME280_temperature;BME280_humidity;BME280_pressure;Samples;Min_cycle;Max_cycle;Signal;HPM_P1;HPM_P2
2022/05/14 00:01:19;;;;;;;10.57;6.05;;;20.00;99.90;;;;;;5014160;28;20103;-67
2022/05/14 00:03:46;;;;;;;9.57;5.80;;;20.00;99.90;;;;;;5014136;28;20030;-67
2022/05/14 00:06:15;;;;;;;11.90;6.40;;;20.00;99.90;;;;;;5013772;28;20025;-68
2022/05/14 00:08:42;;;;;;;13.30;6.80;;;20.00;99.90;;;;;;5013760;28;20041;-68
2022/05/14 00:13:53;;;;;;;12.30;6.32;;;20.00;99.90;;;;;;5013819;28;20037;-68
2022/05/14 00:16:20;;;;;;;8.85;5.40;;;19.90;99.90;;;;;;5014024;28;20029;-68
2022/05/14 00:18:46;;;;;;;10.05;6.20;;;19.90;99.90;;;;;;5013280;28;20026;-67
2022/05/14 00:21:13;;;;;;;10.02;6.18;;;19.90;99.90;;;;;;5013859;28;20030;-69
2022/05/14 00:23:39;;;;;;;13.68;6.22;;;19.80;99.90;;;;;;5013871;28;20064;-68
2022/05/14 00:26:05;;;;;;;8.93;6.10;;;19.70;99.90;;;;;;5013670;28;20061;-67
2022/05/14 00:28:32;;;;;;;11.05;6.03;;;19.70;99.90;;;;;;5013028;28;20046;-69
2022/05/14 00:30:58;;;;;;;12.48;7.18;;;19.70;99.90;;;;;;5012849;28;20033;-68
2022/05/14 00:33:24;;;;;;;11.73;5.97;;;19.70;99.90;;;;;;5013402;28;20034;-68
2022/05/14 00:35:50;;;;;;;10.48;6.00;;;19.70;99.90;;;;;;5013436;28;20029;-68
2022/05/14 00:38:16;;;;;;;9.68;6.10;;;19.60;99.90;;;;;;5013279;28;20026;-68
2022/05/14 00:40:58;;;;;;;12.40;6.00;;;19.50;99.90;;;;;;5013286;28;20511;-68
2022/05/14 00:43:25;;;;;;;11.25;6.68;;;19.50;99.90;;;;;;5013443;28;20036;-67
2022/05/14 00:46:14;;;;;;;11.55;6.32;;;19.50;99.90;;;;;;5012009;28;20046;-68
2022/05/14 00:48:42;;;;;;;10.30;6.00;;;19.50;99.90;;;;;;5013365;28;20044;-67
2022/05/14 00:51:15;;;;;;;16.08;6.72;;;19.40;99.90;;;;;;5011770;28;20492;-66
2022/05/14 00:53:46;;;;;;;14.02;6.63;;;19.40;99.90;;;;;;5011956;28;20034;-69
2022/05/14 00:56:20;;;;;;;11.05;6.20;;;19.20;99.90;;;;;;5011938;28;20032;-68
2022/05/14 00:58:54;;;;;;;10.02;6.20;;;19.20;99.90;;;;;;5011511;28;20052;-69
2022/05/14 01:01:20;;;;;;;11.48;6.88;;;19.10;99.90;;;;;;5013232;28;20486;-69
2022/05/14 01:03:47;;;;;;;11.82;6.45;;;19.10;99.90;;;;;;5012067;28;20120;-68
2022/05/14 01:06:16;;;;;;;13.25;6.70;;;19.10;99.90;;;;;;5011576;28;20025;-68
2022/05/14 01:08:43;;;;;;;11.13;6.88;;;19.10;99.90;;;;;;5011509;28;21336;-69
2022/05/14 01:11:12;;;;;;;12.82;7.15;;;19.20;99.90;;;;;;5012990;28;20041;-68
2022/05/14 01:13:38;;;;;;;13.68;7.80;;;19.20;99.90;;;;;;5011513;28;20540;-68
2022/05/14 01:16:04;;;;;;;27.95;7.72;;;19.20;99.90;;;;;;5012785;28;20022;-69
2022/05/14 01:18:33;;;;;;;13.73;7.60;;;19.20;99.90;;;;;;5011658;28;20076;-68
2022/05/14 01:21:10;;;;;;;15.10;8.23;;;19.20;99.90;;;;;;5011554;28;20022;-69
2022/05/14 01:26:40;;;;;;;13.60;7.35;;;19.00;99.90;;;;;;5011439;28;20038;-66
2022/05/14 01:29:13;;;;;;;;;;;19.00;99.90;;;;;;5010746;28;20420;-69
2022/05/14 01:31:40;;;;;;;12.25;6.70;;;19.00;99.90;;;;;;5011300;28;19996;-67
2022/05/14 01:34:11;;;;;;;14.73;8.07;;;19.00;99.90;;;;;;5011535;28;20526;-69
2022/05/14 01:36:39;;;;;;;11.57;7.05;;;19.00;99.90;;;;;;5011377;28;20149;-67
2022/05/14 01:39:07;;;;;;;17.85;8.18;;;19.00;99.90;;;;;;5011197;28;20031;-68
2022/05/14 01:41:34;;;;;;;16.63;7.15;;;19.00;99.90;;;;;;5012452;28;20054;-68
2022/05/14 01:43:59;;;;;;;12.20;7.53;;;19.10;99.90;;;;;;5011110;28;20548;-67
2022/05/14 01:46:25;;;;;;;11.30;6.80;;;19.00;99.90;;;;;;5010820;28;20137;-68
2022/05/14 01:48:52;;;;;;;11.80;7.72;;;19.00;99.90;;;;;;5011083;28;20411;-68
2022/05/14 01:51:19;;;;;;;11.77;7.13;;;19.00;99.90;;;;;;5011140;28;20032;-68
2022/05/14 01:53:45;;;;;;;12.60;7.45;;;19.10;99.90;;;;;;5010974;28;20057;-68
2022/05/14 01:56:12;;;;;;;11.63;6.80;;;19.00;99.90;;;;;;5010962;28;20384;-69
2022/05/14 01:58:38;;;;;;;12.98;6.78;;;19.00;99.90;;;;;;5012560;28;20022;-68
2022/05/14 02:01:29;;;;;;;10.38;6.47;;;19.00;99.90;;;;;;5011827;28;20476;-68
2022/05/14 02:04:04;;;;;;;8.77;5.47;;;19.00;99.90;;;;;;5011576;28;20037;-68
2022/05/14 02:06:32;;;;;;;9.75;5.63;;;19.00;99.90;;;;;;5011167;28;20124;-68
2022/05/14 02:09:00;;;;;;;11.80;5.60;;;19.10;99.90;;;;;;5010561;28;20149;-67
2022/05/14 02:11:26;;;;;;;9.07;6.18;;;19.00;99.90;;;;;;5010810;28;20510;-68
2022/05/14 02:14:00;;;;;;;11.65;6.32;;;19.00;99.90;;;;;;5010678;28;20033;-69
2022/05/14 02:16:26;;;;;;;13.27;6.35;;;19.00;99.90;;;;;;5010323;28;20056;-68
2022/05/14 02:18:52;;;;;;;10.07;6.45;;;19.00;99.90;;;;;;5010786;28;20539;-68
2022/05/14 02:21:20;;;;;;;12.60;6.72;;;19.00;99.90;;;;;;5010840;28;20026;-68
2022/05/14 02:23:47;;;;;;;10.82;5.90;;;19.00;99.90;;;;;;5002553;28;20049;-68
2022/05/14 02:26:13;;;;;;;12.23;6.50;;;19.00;99.90;;;;;;5010559;28;20388;-68
2022/05/14 02:28:40;;;;;;;10.43;5.88;;;18.90;99.90;;;;;;5010478;28;20042;-69
2022/05/14 02:31:06;;;;;;;9.93;6.45;;;18.90;99.90;;;;;;5011953;28;20018;-69
2022/05/14 02:33:33;;;;;;;17.52;6.35;;;18.90;99.90;;;;;;5012125;28;20026;-69
2022/05/14 02:36:00;;;;;;;10.18;6.15;;;18.90;99.90;;;;;;5010563;28;20026;-69
2022/05/14 02:38:28;;;;;;;12.40;7.00;;;18.80;99.90;;;;;;5011624;28;20393;-69
2022/05/14 02:40:54;;;;;;;10.95;6.45;;;18.90;99.90;;;;;;5012686;28;20030;-69
2022/05/14 02:43:20;;;;;;;11.15;6.18;;;18.90;99.90;;;;;;5014222;28;20515;-69
2022/05/14 02:45:47;;;;;;;10.55;6.07;;;18.80;99.90;;;;;;5015602;28;20053;-69
2022/05/14 02:48:12;;;;;;;13.73;6.10;;;18.80;99.90;;;;;;5015593;28;20042;-69
2022/05/14 02:50:39;;;;;;;13.77;5.53;;;18.90;99.90;;;;;;5014382;28;20041;-67
2022/05/14 02:53:05;;;;;;;14.02;6.13;;;18.90;99.90;;;;;;5015558;28;20548;-68
2022/05/14 02:55:32;;;;;;;8.95;5.95;;;18.90;99.90;;;;;;5015405;28;20037;-67
2022/05/14 02:57:58;;;;;;;11.07;5.70;;;18.90;99.90;;;;;;5015382;28;20435;-68
2022/05/14 03:00:24;;;;;;;9.32;5.28;;;19.00;99.90;;;;;;5015508;28;20021;-69
2022/05/14 03:02:50;;;;;;;9.45;5.60;;;19.00;99.90;;;;;;5015234;28;20072;-69
2022/05/14 03:05:19;;;;;;;12.25;5.63;;;19.00;99.90;;;;;;5013823;28;20476;-68
2022/05/14 03:07:46;;;;;;;10.48;5.07;;;19.10;99.90;;;;;;4997643;28;20427;-68
2022/05/14 03:10:13;;;;;;;10.52;4.85;;;19.10;99.90;;;;;;5015117;28;20391;-68
2022/05/14 03:12:40;;;;;;;10.20;5.45;;;19.10;99.90;;;;;;4997418;28;20042;-68
2022/05/14 03:15:09;;;;;;;8.57;5.05;;;19.20;99.90;;;;;;5014909;28;20032;-68
2022/05/14 03:17:36;;;;;;;14.38;5.55;;;19.20;99.90;;;;;;5015241;28;20040;-68
2022/05/14 03:20:08;;;;;;;9.10;5.25;;;19.30;99.90;;;;;;5014596;28;20472;-69
2022/05/14 03:22:36;;;;;;;14.98;5.75;;;19.30;99.90;;;;;;5013428;28;20041;-69
2022/05/14 03:25:03;;;;;;;8.98;4.90;;;19.30;99.90;;;;;;5013621;28;20026;-69
2022/05/14 03:27:29;;;;;;;10.48;5.15;;;19.40;99.90;;;;;;5013366;28;20042;-68
2022/05/14 03:29:56;;;;;;;9.68;5.07;;;19.40;99.90;;;;;;5013425;28;20172;-68
2022/05/14 03:32:24;;;;;;;10.45;5.18;;;19.50;99.90;;;;;;5014724;28;20387;-68
2022/05/14 03:34:54;;;;;;;11.35;4.93;;;19.60;99.90;;;;;;4997075;28;20029;-67
2022/05/14 03:37:22;;;;;;;10.57;4.97;;;19.90;99.90;;;;;;5012491;28;20424;-67
2022/05/14 03:39:48;;;;;;;12.48;4.93;;;20.20;99.90;;;;;;5026385;28;20061;-66
2022/05/14 03:42:14;;;;;;;8.60;4.57;;;20.30;99.90;;;;;;5018559;28;20029;-66
2022/05/14 03:44:40;;;;;;;9.73;4.82;;;20.20;99.90;;;;;;4998841;28;20365;-68
2022/05/14 03:47:05;;;;;;;7.22;4.22;;;20.10;99.90;;;;;;5011811;28;20038;-66
2022/05/14 03:49:31;;;;;;;7.95;4.40;;;20.00;99.90;;;;;;4995337;28;20037;-68
2022/05/14 03:51:57;;;;;;;7.88;4.50;;;19.90;99.90;;;;;;5009090;28;20034;-68
2022/05/14 03:54:23;;;;;;;13.80;5.30;;;19.90;99.90;;;;;;4995084;28;20022;-69
2022/05/14 03:56:49;;;;;;;11.43;5.60;;;19.90;99.90;;;;;;4992380;28;20479;-68
2022/05/14 03:59:15;;;;;;;11.73;4.53;;;19.80;99.90;;;;;;5014326;28;20050;-69
2022/05/14 04:01:41;;;;;;;7.38;4.40;;;19.80;99.90;;;;;;4994701;28;20108;-67
2022/05/14 04:04:07;;;;;;;9.30;4.70;;;19.80;99.90;;;;;;4992888;28;20114;-68
2022/05/14 04:06:34;;;;;;;9.95;5.72;;;19.90;99.90;;;;;;5008321;28;20026;-67
2022/05/14 04:09:01;;;;;;;14.20;5.18;;;19.90;99.90;;;;;;5010279;28;20588;-66
2022/05/14 04:11:28;;;;;;;9.55;5.55;;;20.00;99.90;;;;;;4995903;28;20045;-68
2022/05/14 04:13:56;;;;;;;10.38;4.72;;;20.00;99.90;;;;;;5012830;28;20117;-68
2022/05/14 04:16:22;;;;;;;7.72;4.82;;;20.10;99.90;;;;;;5013935;28;20489;-68
2022/05/14 04:18:48;;;;;;;8.00;4.50;;;20.20;99.90;;;;;;4991088;28;20072;-68
2022/05/14 04:21:15;;;;;;;15.32;4.97;;;21.10;99.90;;;;;;4997669;28;20026;-66
2022/05/14 04:23:42;;;;;;;9.32;3.97;;;21.80;99.90;;;;;;5016020;28;20021;-66
2022/05/14 04:26:08;;;;;;;6.25;3.85;;;21.90;99.90;;;;;;5015065;28;20060;-68
2022/05/14 04:28:37;;;;;;;8.55;4.40;;;21.40;99.90;;;;;;4995893;28;20030;-65
2022/05/14 04:31:03;;;;;;;9.30;3.92;;;21.30;99.90;;;;;;5013384;28;20025;-65
2022/05/14 04:33:30;;;;;;;6.47;3.88;;;21.30;99.90;;;;;;4998622;28;20028;-68
2022/05/14 04:35:56;;;;;;;4.75;3.20;;;21.20;99.90;;;;;;5013797;28;20030;-68
2022/05/14 04:38:23;;;;;;;4.38;3.10;;;21.20;99.90;;;;;;5011633;28;20022;-67
2022/05/14 04:40:49;;;;;;;7.00;3.53;;;21.00;99.90;;;;;;5012715;28;20464;-68
2022/05/14 04:43:16;;;;;;;6.07;3.03;;;21.10;99.90;;;;;;5011171;28;20431;-68
2022/05/14 04:45:43;;;;;;;8.70;3.53;;;21.10;99.90;;;;;;4995107;28;20073;-65
2022/05/14 04:48:11;;;;;;;6.00;3.38;;;21.10;99.90;;;;;;5011764;28;20038;-67
2022/05/14 04:50:39;;;;;;;8.63;4.35;;;21.10;99.90;;;;;;5011904;28;20057;-65
2022/05/14 04:53:06;;;;;;;8.38;4.25;;;21.10;99.90;;;;;;5011068;28;20030;-67
2022/05/14 04:55:33;;;;;;;10.60;4.72;;;20.90;99.90;;;;;;5012061;28;20457;-67
2022/05/14 04:57:59;;;;;;;12.57;4.82;;;21.00;99.90;;;;;;5011350;28;20038;-67
2022/05/14 05:00:27;;;;;;;9.35;5.78;;;20.90;99.90;;;;;;5011706;28;20026;-67
2022/05/14 05:05:38;;;;;;;8.75;5.97;;;20.70;99.90;;;;;;5011356;28;20033;-68
2022/05/14 05:08:05;;;;;;;9.20;6.28;;;20.80;99.90;;;;;;5012526;28;20112;-67
2022/05/14 05:10:31;;;;;;;14.07;6.43;;;20.60;99.90;;;;;;5012791;28;20475;-68
2022/05/14 05:12:57;;;;;;;13.85;6.28;;;20.60;99.90;;;;;;5011773;28;20022;-67
2022/05/14 05:15:23;;;;;;;9.00;5.72;;;20.60;99.90;;;;;;5012231;28;20033;-68
2022/05/14 05:17:49;;;;;;;13.13;6.07;;;20.50;99.90;;;;;;5012003;28;20030;-67
2022/05/14 05:20:15;;;;;;;12.20;5.55;;;20.60;99.90;;;;;;5012394;28;20030;-68
2022/05/14 05:22:41;;;;;;;8.40;5.05;;;20.70;99.90;;;;;;5012045;28;20025;-67
2022/05/14 05:25:09;;;;;;;9.82;5.45;;;20.60;99.90;;;;;;5012163;28;20025;-66
2022/05/14 05:27:35;;;;;;;9.77;5.53;;;20.60;99.90;;;;;;5011974;28;20029;-68
2022/05/14 05:30:03;;;;;;;11.32;5.57;;;20.70;99.90;;;;;;5010586;28;20514;-67
2022/05/14 05:32:29;;;;;;;12.27;5.03;;;20.90;99.90;;;;;;5012486;28;20026;-67
2022/05/14 05:34:55;;;;;;;11.57;6.25;;;20.90;99.90;;;;;;5012281;28;20080;-66
2022/05/14 05:37:21;;;;;;;10.02;5.60;;;20.90;99.90;;;;;;5010998;28;20025;-67
2022/05/14 05:39:47;;;;;;;9.43;5.15;;;20.90;99.90;;;;;;5012065;28;20024;-67
2022/05/14 05:42:13;;;;;;;7.93;4.80;;;21.10;99.90;;;;;;5012311;28;20065;-67
2022/05/14 05:44:38;;;;;;;15.70;5.90;;;21.00;99.90;;;;;;5011793;28;20026;-65
2022/05/14 05:47:09;;;;;;;10.23;5.35;;;20.90;99.90;;;;;;5010976;28;20042;-67
2022/05/14 05:49:37;;;;;;;10.95;4.80;;;20.90;99.90;;;;;;5010156;28;20085;-65
2022/05/14 05:52:03;;;;;;;8.35;4.32;;;21.00;99.90;;;;;;5011652;28;20018;-68
2022/05/14 05:57:13;;;;;;;8.77;4.38;;;21.00;99.90;;;;;;5011438;28;20460;-67
2022/05/14 05:59:39;;;;;;;9.18;3.90;;;21.00;99.90;;;;;;5011732;28;20028;-66
2022/05/14 06:02:06;;;;;;;11.02;4.93;;;21.00;99.90;;;;;;5010984;28;20018;-68
2022/05/14 06:04:32;;;;;;;8.82;4.50;;;21.00;99.90;;;;;;5011750;28;20424;-67
2022/05/14 06:06:58;;;;;;;12.02;5.25;;;21.00;99.90;;;;;;5011206;28;20022;-66
2022/05/14 06:09:26;;;;;;;8.27;4.22;;;21.00;99.90;;;;;;5011663;28;20069;-68
2022/05/14 06:11:52;;;;;;;11.48;4.47;;;20.90;99.90;;;;;;5012430;28;20516;-68
2022/05/14 06:14:19;;;;;;;7.85;4.53;;;21.00;99.90;;;;;;5011840;28;20137;-69
2022/05/14 06:16:45;;;;;;;10.77;4.85;;;21.00;99.90;;;;;;5016366;28;20037;-66
2022/05/14 06:19:11;;;;;;;10.07;4.88;;;21.00;99.90;;;;;;5017892;28;20025;-66
2022/05/14 06:21:38;;;;;;;7.20;4.88;;;21.20;99.90;;;;;;5026810;28;20553;-65
2022/05/14 06:24:06;;;;;;;7.82;4.18;;;21.30;99.90;;;;;;5024319;28;20103;-67
2022/05/14 06:26:32;;;;;;;7.03;4.15;;;21.90;99.90;;;;;;5016814;28;20050;-66
2022/05/14 06:28:59;;;;;;;11.75;3.80;;;22.30;99.90;;;;;;5016781;28;20033;-66
2022/05/14 06:31:25;;;;;;;11.77;5.00;;;22.40;99.90;;;;;;5017173;28;20472;-65
2022/05/14 06:33:51;;;;;;;10.75;3.83;;;22.50;99.90;;;;;;5017993;28;20029;-67
2022/05/14 06:36:18;;;;;;;9.57;4.50;;;22.10;99.90;;;;;;5017776;28;20364;-67
2022/05/14 06:38:44;;;;;;;7.80;4.47;;;22.10;99.90;;;;;;5001839;28;20038;-67
2022/05/14 06:41:13;;;;;;;5.68;4.40;;;22.30;99.90;;;;;;5006983;28;20034;-68
2022/05/14 06:43:40;;;;;;;10.10;4.57;;;22.20;99.90;;;;;;5017887;28;20033;-67
2022/05/14 06:46:06;;;;;;;12.15;4.28;;;22.30;99.90;;;;;;5017577;28;20489;-67
2022/05/14 06:48:32;;;;;;;10.70;4.60;;;22.50;99.90;;;;;;5017417;28;20048;-68
2022/05/14 06:51:14;;;;;;;10.23;4.35;;;22.50;99.90;;;;;;5017367;28;20028;-66
2022/05/14 06:53:41;;;;;;;10.45;4.25;;;22.50;99.90;;;;;;5017050;28;20028;-67
2022/05/14 06:56:08;;;;;;;5.90;3.50;;;22.30;99.90;;;;;;5017395;28;20053;-68
2022/05/14 06:58:39;;;;;;;8.45;3.60;;;22.00;99.90;;;;;;5017018;28;20096;-68
2022/05/14 07:01:06;;;;;;;9.40;4.32;;;22.40;99.90;;;;;;5019351;28;20026;-69
2022/05/14 07:06:38;;;;;;;8.82;4.10;;;22.80;99.90;;;;;;5007532;28;20049;-68
2022/05/14 07:09:15;;;;;;;8.23;4.15;;;22.90;99.90;;;;;;5009642;28;20044;-67
2022/05/14 07:11:44;;;;;;;6.57;4.05;;;22.80;99.90;;;;;;5014823;28;20030;-67
2022/05/14 07:14:12;;;;;;;6.82;3.85;;;22.70;99.90;;;;;;5015699;28;20472;-67
2022/05/14 07:16:39;;;;;;;8.25;4.13;;;22.60;99.90;;;;;;5016518;28;20022;-68
2022/05/14 07:19:06;;;;;;;5.78;3.70;;;22.70;99.90;;;;;;5018095;28;20029;-67
2022/05/14 07:21:43;;;;;;;9.05;4.35;;;22.50;99.90;;;;;;5017123;28;20065;-67
2022/05/14 07:24:13;;;;;;;5.47;3.10;;;22.20;99.90;;;;;;5020533;28;20491;-68
2022/05/14 07:26:40;;;;;;;8.90;3.85;;;22.60;99.90;;;;;;5025754;28;20024;-68
2022/05/14 07:29:07;;;;;;;6.65;4.28;;;23.00;99.90;;;;;;5010981;28;20085;-69
2022/05/14 07:31:34;;;;;;;6.82;4.13;;;22.60;99.90;;;;;;5014470;28;20030;-69
2022/05/14 07:34:01;;;;;;;7.13;3.65;;;22.80;99.90;;;;;;5014208;28;20030;-68
2022/05/14 07:36:29;;;;;;;14.02;4.32;;;23.20;99.90;;;;;;5014028;28;20030;-70
2022/05/14 07:38:58;;;;;;;7.57;3.72;;;23.60;99.90;;;;;;5014140;28;20080;-70
2022/05/14 07:41:26;;;;;;;7.70;4.13;;;23.90;99.90;;;;;;5014242;28;20045;-67
2022/05/14 07:43:55;;;;;;;14.02;4.20;;;23.90;99.90;;;;;;5014973;28;20037;-69
2022/05/14 07:46:28;;;;;;;7.63;4.50;;;23.80;99.80;;;;;;5013897;28;20054;-68
2022/05/14 07:48:56;;;;;;;8.88;3.88;;;23.50;99.90;;;;;;5014249;28;20038;-69
2022/05/14 07:51:22;;;;;;;9.20;3.85;;;23.70;99.90;;;;;;5014134;28;20057;-69
2022/05/14 07:53:48;;;;;;;8.00;3.85;;;23.90;99.90;;;;;;5014004;28;20554;-68
2022/05/14 07:56:14;;;;;;;6.00;4.32;;;23.50;99.90;;;;;;5013989;28;20036;-68
2022/05/14 07:58:43;;;;;;;6.50;4.05;;;23.60;99.90;;;;;;5013857;28;20034;-69
2022/05/14 08:01:10;;;;;;;7.50;3.88;;;23.50;99.90;;;;;;5014098;28;20026;-69
2022/05/14 08:03:36;;;;;;;10.27;4.22;;;23.80;99.90;;;;;;5013866;28;20030;-69
2022/05/14 08:06:02;;;;;;;7.10;3.53;;;24.20;99.90;;;;;;5013671;28;20844;-68
2022/05/14 08:08:28;;;;;;;10.13;3.70;;;24.60;99.90;;;;;;5012348;28;20029;-66
2022/05/14 08:10:55;;;;;;;4.20;3.15;;;24.90;99.80;;;;;;5013135;28;20100;-65
2022/05/14 08:13:23;;;;;;;6.25;3.65;;;24.70;94.60;;;;;;5013532;28;20021;-68
2022/05/14 08:15:50;;;;;;;9.10;3.45;;;24.50;97.50;;;;;;5013695;28;20017;-65
2022/05/14 08:18:17;;;;;;;6.25;3.92;;;24.40;96.40;;;;;;5013377;28;20021;-65
2022/05/14 08:20:45;;;;;;;8.68;4.22;;;24.50;98.90;;;;;;5013232;28;20029;-69
2022/05/14 08:25:58;;;;;;;7.70;4.25;;;24.70;98.20;;;;;;5013294;28;20034;-68
2022/05/14 08:28:24;;;;;;;5.00;3.40;;;24.20;98.30;;;;;;5013497;28;20029;-65
2022/05/14 08:30:50;;;;;;;5.55;3.63;;;24.50;99.30;;;;;;5013663;28;20025;-65
2022/05/14 08:33:16;;;;;;;9.73;3.67;;;24.60;97.60;;;;;;5013291;28;20026;-65
2022/05/14 08:35:42;;;;;;;5.57;3.53;;;24.60;97.00;;;;;;5013140;28;20022;-69
2022/05/14 08:38:12;;;;;;;11.57;4.97;;;24.30;95.20;;;;;;5013093;28;20460;-70
2022/05/14 08:40:41;;;;;;;7.88;4.10;;;24.40;98.20;;;;;;5013200;28;20436;-68
2022/05/14 08:43:17;;;;;;;5.93;3.63;;;24.40;98.80;;;;;;5012752;28;20026;-68
2022/05/14 08:45:44;;;;;;;6.03;3.40;;;24.80;96.90;;;;;;5012772;28;20100;-70
2022/05/14 08:48:25;;;;;;;9.45;4.10;;;24.90;94.10;;;;;;5012950;28;20100;-69
2022/05/14 08:51:14;;;;;;;5.75;4.07;;;25.10;96.20;;;;;;5013120;28;20030;-67
2022/05/14 08:53:45;;;;;;;7.22;4.30;;;25.20;95.50;;;;;;5015056;28;20030;-67
2022/05/14 08:56:20;;;;;;;6.57;4.05;;;25.40;98.50;;;;;;5020330;28;20025;-69
2022/05/14 08:59:05;;;;;;;8.00;3.65;;;25.70;97.80;;;;;;5012331;28;20440;-68
2022/05/14 09:01:34;;;;;;;9.10;5.03;;;25.80;95.40;;;;;;5012137;28;20060;-68
2022/05/14 09:04:00;;;;;;;10.35;4.03;;;25.90;90.80;;;;;;5011951;28;20026;-67
2022/05/14 09:06:27;;;;;;;7.50;3.33;;;25.50;92.10;;;;;;5012229;28;20044;-68
2022/05/14 09:08:52;;;;;;;4.80;3.13;;;25.60;91.70;;;;;;5011882;28;20038;-68
2022/05/14 09:11:26;;;;;;;5.00;3.40;;;25.40;90.30;;;;;;5011619;28;20037;-65
2022/05/14 09:14:06;;;;;;;5.68;3.53;;;25.40;92.00;;;;;;5013895;28;20037;-65
2022/05/14 09:16:37;;;;;;;6.10;3.88;;;25.20;89.80;;;;;;5005466;28;20026;-68
2022/05/14 09:19:14;;;;;;;5.50;3.13;;;25.30;90.80;;;;;;5002471;28;20025;-69
2022/05/14 09:21:53;;;;;;;5.45;2.97;;;25.40;92.50;;;;;;5015098;28;20153;-68
2022/05/14 09:24:27;;;;;;;13.20;4.03;;;25.60;90.00;;;;;;5011355;28;20120;-69
2022/05/14 09:27:08;;;;;;;4.28;2.53;;;25.60;90.20;;;;;;5001177;28;20472;-69
2022/05/14 09:29:45;;;;;;;5.10;3.35;;;25.60;89.90;;;;;;5010737;28;20040;-69
2022/05/14 09:32:17;;;;;;;6.28;3.30;;;25.30;87.10;;;;;;4993945;28;20023;-66
2022/05/14 09:34:42;;;;;;;4.97;3.33;;;25.20;86.80;;;;;;4991622;28;20030;-68
2022/05/14 09:37:16;;;;;;;4.72;2.67;;;25.20;87.40;;;;;;4992018;28;20022;-64
2022/05/14 09:39:42;;;;;;;8.60;3.63;;;25.40;86.70;;;;;;4991550;28;20529;-68
2022/05/14 09:42:54;;;;;;;6.75;3.20;;;25.50;86.40;;;;;;4996491;28;20037;-68
2022/05/14 09:45:32;;;;;;;12.52;3.42;;;25.80;85.10;;;;;;4948867;28;20047;-67
2022/05/14 09:48:09;;;;;;;4.88;3.17;;;25.80;87.80;;;;;;4943904;29;20039;-68
2022/05/14 09:50:36;;;;;;;4.82;2.80;;;26.00;88.40;;;;;;4955406;28;20035;-68
2022/05/14 09:53:06;;;;;;;4.80;2.65;;;26.20;88.20;;;;;;4955248;28;20073;-66
2022/05/14 09:55:43;;;;;;;5.75;2.85;;;26.10;81.80;;;;;;4948804;29;20482;-66
2022/05/14 09:58:42;;;;;;;6.88;3.17;;;26.20;83.90;;;;;;4950067;29;20039;-66
2022/05/14 10:01:09;;;;;;;7.00;3.60;;;26.10;86.60;;;;;;4945013;29;20027;-66
2022/05/14 10:04:11;;;;;;;4.80;3.33;;;26.20;82.30;;;;;;4949635;29;20050;-68
2022/05/14 10:06:37;;;;;;;;;;;26.50;83.70;;;;;;4950484;29;20133;-69
2022/05/14 10:09:21;;;;;;;5.60;3.08;;;26.50;83.00;;;;;;4942887;29;20416;-68
2022/05/14 10:11:53;;;;;;;5.88;3.00;;;26.50;85.00;;;;;;4950006;29;20216;-68
2022/05/14 10:14:32;;;;;;;6.43;2.78;;;26.40;81.00;;;;;;4946319;29;20042;-68
2022/05/14 10:17:06;;;;;;;4.85;2.53;;;26.70;80.30;;;;;;4949731;29;20130;-67
2022/05/14 10:19:44;;;;;;;5.18;2.80;;;26.40;82.80;;;;;;4943004;29;20425;-66
2022/05/14 10:22:13;;;;;;;6.68;3.47;;;26.60;79.10;;;;;;4956819;28;20042;-68
2022/05/14 10:28:20;;;;;;;3.15;2.50;;;26.30;80.50;;;;;;4968799;28;20382;-68
2022/05/14 10:31:09;;;;;;;4.50;2.80;;;25.70;78.90;;;;;;4969434;28;20038;-67
2022/05/14 10:33:36;;;;;;;5.18;3.20;;;25.80;81.80;;;;;;4968386;28;20058;-69
2022/05/14 10:36:20;;;;;;;7.65;2.88;;;26.30;79.50;;;;;;4968997;28;20064;-67
2022/05/14 10:38:56;;;;;;;3.88;2.55;;;26.30;78.30;;;;;;4968764;28;20512;-68
2022/05/14 10:41:42;;;;;;;8.07;3.40;;;26.30;79.60;;;;;;4968657;28;20042;-65
2022/05/14 10:44:27;;;;;;;5.95;2.90;;;25.90;78.90;;;;;;4992659;28;20085;-67
2022/05/14 10:46:54;;;;;;;5.90;3.05;;;25.50;81.10;;;;;;4996576;28;20054;-67
2022/05/14 10:49:34;;;;;;;5.25;2.97;;;25.50;80.50;;;;;;5001101;28;20105;-67
2022/05/14 10:52:00;;;;;;;5.95;2.58;;;26.00;81.60;;;;;;4995929;28;20159;-69
2022/05/14 10:54:27;;;;;;;4.32;2.45;;;26.00;74.20;;;;;;4996744;28;20027;-65
2022/05/14 10:56:59;;;;;;;5.95;2.03;;;26.30;73.10;;;;;;4997003;28;20072;-70
2022/05/14 11:00:20;;;;;;;5.15;2.38;;;26.50;72.60;;;;;;5007360;28;20576;-66
2022/05/14 11:03:04;;;;;;;4.90;2.72;;;26.70;74.40;;;;;;5010180;28;20034;-65
2022/05/14 11:05:48;;;;;;;4.10;2.40;;;26.70;70.30;;;;;;5002617;28;20057;-67
2022/05/14 11:08:26;;;;;;;8.40;2.63;;;26.70;68.20;;;;;;5004363;28;20030;-65
2022/05/14 11:11:02;;;;;;;4.10;2.42;;;26.70;70.50;;;;;;5012893;28;20033;-64
2022/05/14 11:13:28;;;;;;;8.05;3.28;;;27.10;69.10;;;;;;5011323;28;20018;-67
2022/05/14 11:16:07;;;;;;;4.93;2.85;;;27.20;67.80;;;;;;5013572;28;20129;-65
2022/05/14 11:18:55;;;;;;;7.18;2.22;;;27.30;69.60;;;;;;5013792;28;20084;-68
2022/05/14 11:21:34;;;;;;;2.83;2.00;;;27.10;65.90;;;;;;5012173;28;20022;-64
2022/05/14 11:24:01;;;;;;;9.27;2.92;;;27.00;67.80;;;;;;5010618;28;20046;-65
2022/05/14 11:26:27;;;;;;;3.30;2.20;;;27.10;67.90;;;;;;5012688;28;20022;-64
2022/05/14 11:29:15;;;;;;;3.80;3.20;;;27.30;67.30;;;;;;5011553;28;20146;-67
2022/05/14 11:32:16;;;;;;;4.40;2.63;;;27.20;68.20;;;;;;5012250;28;20064;-67
2022/05/14 11:34:59;;;;;;;6.03;3.10;;;27.10;68.00;;;;;;5011235;28;20132;-67
2022/05/14 11:37:38;;;;;;;6.15;2.70;;;27.10;66.90;;;;;;5011622;28;20502;-65
2022/05/14 11:40:19;;;;;;;5.20;3.15;;;27.10;65.70;;;;;;5011461;28;20028;-64
2022/05/14 11:42:48;;;;;;;5.18;2.70;;;27.10;67.90;;;;;;5012149;28;20038;-67
2022/05/14 11:45:24;;;;;;;10.65;2.38;;;27.00;68.40;;;;;;5010320;28;20387;-64
2022/05/14 11:48:20;;;;;;;24.95;4.03;;;26.80;68.10;;;;;;5011491;28;20112;-64
2022/05/14 11:51:12;;;;;;;8.10;2.50;;;26.60;65.40;;;;;;5014286;28;20079;-67
2022/05/14 11:53:40;;;;;;;4.32;2.60;;;26.20;64.00;;;;;;5012102;28;20021;-63
2022/05/14 11:56:10;;;;;;;14.85;2.83;;;26.30;64.50;;;;;;5014261;28;20034;-68
2022/05/14 11:59:37;;;;;;;4.88;2.05;;;26.20;63.00;;;;;;5012702;28;20022;-64
2022/05/14 12:02:13;;;;;;;7.18;2.65;;;26.10;64.80;;;;;;4986922;28;20042;-68
2022/05/14 12:04:44;;;;;;;9.80;2.75;;;26.40;66.50;;;;;;4990381;28;20523;-66
2022/05/14 12:07:49;;;;;;;5.20;2.38;;;26.50;64.70;;;;;;4990022;28;20034;-65
2022/05/14 12:10:25;;;;;;;6.97;2.40;;;26.60;63.90;;;;;;4986699;28;20042;-69
2022/05/14 12:13:13;;;;;;;4.20;2.55;;;26.80;65.30;;;;;;4991547;28;20034;-68
2022/05/14 12:15:47;;;;;;;4.70;2.40;;;27.00;64.80;;;;;;4991320;28;20508;-68
2022/05/14 12:18:14;;;;;;;9.57;3.15;;;27.20;63.60;;;;;;4991565;28;20089;-69
2022/05/14 12:20:43;;;;;;;24.05;5.05;;;27.30;64.20;;;;;;4991740;28;20094;-68
2022/05/14 12:23:17;;;;;;;25.92;3.85;;;27.50;64.70;;;;;;4990450;28;20049;-69
2022/05/14 12:25:52;;;;;;;8.65;2.65;;;27.40;62.40;;;;;;4992456;28;20033;-67
2022/05/14 12:28:28;;;;;;;37.30;5.60;;;27.40;65.10;;;;;;4991282;28;20161;-67
2022/05/14 12:34:00;;;;;;;11.75;2.83;;;27.50;63.00;;;;;;4986586;28;20026;-71
2022/05/14 12:36:31;;;;;;;6.18;2.08;;;27.40;62.50;;;;;;5000400;28;20038;-70
2022/05/14 12:38:57;;;;;;;4.72;2.30;;;27.30;61.50;;;;;;4995606;28;20022;-69
2022/05/14 12:41:32;;;;;;;5.00;2.28;;;27.30;61.80;;;;;;5002452;28;20057;-67
2022/05/14 12:44:16;;;;;;;4.55;2.20;;;27.50;61.90;;;;;;4996782;28;20072;-70
2022/05/14 12:46:45;;;;;;;3.90;2.33;;;27.40;61.60;;;;;;4996558;28;20427;-68
2022/05/14 12:49:35;;;;;;;3.72;2.28;;;27.40;62.80;;;;;;4995630;28;20041;-67
2022/05/14 12:52:29;;;;;;;5.53;2.78;;;27.50;62.20;;;;;;4995957;28;20030;-67
2022/05/14 12:54:59;;;;;;;2.35;2.15;;;27.60;62.10;;;;;;4993172;28;20041;-70
2022/05/14 12:57:26;;;;;;;4.15;2.40;;;27.70;62.50;;;;;;4995279;28;20457;-64
2022/05/14 12:59:53;;;;;;;5.22;2.38;;;27.80;59.60;;;;;;4991758;28;20101;-69
2022/05/14 13:02:33;;;;;;;2.20;1.67;;;27.80;61.70;;;;;;4992890;28;20121;-65
2022/05/14 13:05:10;;;;;;;6.38;2.30;;;27.80;60.40;;;;;;4993915;28;20058;-64
2022/05/14 13:07:52;;;;;;;3.38;2.08;;;27.90;59.80;;;;;;4996530;28;20563;-65
2022/05/14 13:10:22;;;;;;;4.15;2.20;;;27.90;60.90;;;;;;5000071;28;20026;-70
2022/05/14 13:12:53;;;;;;;4.55;1.88;;;27.80;59.40;;;;;;4996761;28;20059;-68
2022/05/14 13:15:29;;;;;;;3.92;2.17;;;27.70;59.30;;;;;;4992296;28;20041;-69
2022/05/14 13:17:55;;;;;;;7.05;2.25;;;27.60;58.30;;;;;;4986743;28;20026;-69
2022/05/14 13:20:26;;;;;;;2.97;1.77;;;27.70;59.30;;;;;;4990589;28;20027;-68
2022/05/14 13:23:04;;;;;;;4.55;2.05;;;27.50;60.20;;;;;;4991543;28;20030;-69
2022/05/14 13:25:35;;;;;;;6.07;1.95;;;27.70;59.40;;;;;;4990990;28;20019;-69